Terminal Aerodrome Forecast
Issued by NWS

Home | Current Version | Previous Version | Text Only | Print | Product List | Glossary On
Versions: 1 2 3 4 5 6 7 8 9 10 11 12 13 14 15 16 17 18 19 20 21 22 23 24 25 26 27 28 29 30 31
000
FTUS42 KCAE 021100
TAFDNL
TAF
KDNL 021134Z 0212/0312 VRB03KT 3SM BR OVC004
      TEMPO 0212/0214 1SM BR OVC002
     FM021500 29005KT P6SM OVC008
     FM021700 30008KT P6SM BKN025
     FM022200 03006KT P6SM BKN050
     FM030100 07009KT P6SM OVC015
     FM030800 07010KT 5SM -RA BR OVC007=

USA.gov is the U.S. government's official web portal to all federal, state and local government web resources and services.